Time;durP1;ratioP1;P1;durP2;ratioP2;P2;SDS_P1;SDS_P2;PMS_P1;PMS_P2;Temp;Humidity;BMP_temperature;BMP_pressure;BME280_temperature;BME280_humidity;BME280_pressure;Samples;Min_cycle;Max_cycle;Signal;HPM_P1;HPM_P2
2021/03/29 00:02:42;;;;;;;29.67;14.50;;;;;;;7.12;57.39;101602.72;2262699;78;27633;-77
2021/03/29 00:05:45;;;;;;;32.73;14.63;;;;;;;7.15;57.60;101608.02;2262563;78;28796;-84
2021/03/29 00:08:47;;;;;;;33.18;14.50;;;;;;;7.17;57.39;101607.11;2234986;78;31943;-72
2021/03/29 00:11:49;;;;;;;30.40;13.78;;;;;;;7.20;57.34;101607.94;2262640;77;34548;-71
2021/03/29 00:14:52;;;;;;;26.62;14.15;;;;;;;7.22;57.39;101603.47;2262474;78;28886;-65
2021/03/29 00:17:54;;;;;;;28.60;14.05;;;;;;;7.25;57.48;101599.43;2262264;78;27561;-68
2021/03/29 00:21:06;;;;;;;31.20;14.47;;;;;;;7.29;57.35;101606.48;2261566;78;28968;-71
2021/03/29 00:24:08;;;;;;;28.38;13.93;;;;;;;7.33;57.68;101607.31;2287384;77;32038;-76
2021/03/29 00:27:10;;;;;;;32.83;13.80;;;;;;;7.35;57.69;101600.64;2304104;77;33022;-73
2021/03/29 00:30:17;;;;;;;29.40;14.03;;;;;;;7.37;57.90;101604.14;2304080;77;29375;-73
2021/03/29 00:33:21;;;;;;;33.15;13.72;;;;;;;7.41;57.90;101602.77;2303934;77;27636;-71
2021/03/29 00:36:24;;;;;;;31.62;12.93;;;;;;;7.47;58.04;101606.22;2303240;76;28799;-74
2021/03/29 00:39:27;;;;;;;30.88;14.65;;;;;;;7.55;58.00;101605.66;2304039;77;31237;-69
2021/03/29 00:42:31;;;;;;;31.40;14.50;;;;;;;7.62;58.19;101602.44;2304260;77;33101;-75
2021/03/29 00:45:33;;;;;;;34.80;14.45;;;;;;;7.69;58.25;101596.98;2304140;77;28852;-73
2021/03/29 00:48:37;;;;;;;30.35;14.87;;;;;;;7.73;58.24;101593.80;2304204;77;27630;-73
2021/03/29 00:51:40;;;;;;;30.05;13.35;;;;;;;7.75;58.00;101594.66;2303673;76;28165;-72
2021/03/29 00:54:43;;;;;;;34.78;13.35;;;;;;;7.77;58.00;101599.52;2263391;76;32309;-75
2021/03/29 00:57:45;;;;;;;23.98;12.18;;;;;;;7.77;58.00;101599.52;2250795;79;34394;-75
2021/03/29 01:00:57;;;;;;;30.17;11.95;;;;;;;7.81;58.11;101601.66;2249926;79;28908;-73
2021/03/29 01:04:02;;;;;;;25.48;11.33;;;;;;;7.81;57.99;101593.23;2251367;79;27540;-77
2021/03/29 01:07:05;;;;;;;25.50;11.10;;;;;;;7.82;58.00;101592.33;2252679;77;28823;-69
2021/03/29 01:10:08;;;;;;;28.12;12.00;;;;;;;7.81;57.90;101586.99;2299626;77;32458;-70
2021/03/29 01:13:12;;;;;;;25.68;11.85;;;;;;;7.80;58.02;101579.46;2261047;76;33117;-71
2021/03/29 01:16:18;;;;;;;27.42;11.60;;;;;;;7.80;58.00;101579.46;2250823;79;29938;-72
2021/03/29 01:19:40;;;;;;;25.10;11.65;;;;;;;7.80;58.04;101573.23;2251438;79;27702;-67
2021/03/29 01:22:47;;;;;;;29.95;11.80;;;;;;;7.81;58.12;101581.66;2242897;79;28950;-73
2021/03/29 01:25:54;;;;;;;32.35;11.35;;;;;;;7.83;58.20;101579.41;2229121;79;32058;-73
2021/03/29 01:28:56;;;;;;;22.25;10.65;;;;;;;7.86;58.27;101579.80;2202625;80;32414;-71
2021/03/29 01:32:01;;;;;;;24.80;10.45;;;;;;;7.85;58.19;101572.27;2202595;80;28922;-74
2021/03/29 01:35:09;;;;;;;;;;;;;;;7.86;58.30;101573.13;2206282;80;27711;-70
2021/03/29 01:38:11;;;;;;;24.45;10.70;;;;;;;7.86;58.36;101565.98;2203463;80;28793;-75
2021/03/29 01:41:13;;;;;;;23.25;11.25;;;;;;;7.86;58.34;101573.13;2203667;80;32448;-75
2021/03/29 01:44:16;;;;;;;22.37;11.00;;;;;;;7.86;58.36;101571.33;2203653;80;34062;-67
2021/03/29 01:47:18;;;;;;;23.55;11.28;;;;;;;7.87;58.29;101565.55;2203133;80;29789;-73
2021/03/29 01:50:25;;;;;;;23.83;10.78;;;;;;;7.89;58.50;101565.08;2203763;80;27714;-74
2021/03/29 01:53:29;;;;;;;23.38;10.43;;;;;;;7.90;58.42;101564.17;2205553;80;28820;-69
2021/03/29 01:56:31;;;;;;;29.48;12.30;;;;;;;7.90;58.43;101565.51;2214394;80;31188;-72
2021/03/29 01:59:33;;;;;;;39.18;16.17;;;;;;;7.91;58.51;101569.94;2235760;78;33011;-71
2021/03/29 02:02:35;;;;;;;43.45;15.60;;;;;;;7.90;58.39;101562.37;2254971;78;30007;-71
2021/03/29 02:05:39;;;;;;;51.95;17.17;;;;;;;7.90;58.45;101554.84;2280308;77;27692;-69
2021/03/29 02:08:42;;;;;;;69.65;20.88;;;;;;;7.91;58.63;101557.93;2312221;77;28808;-69
2021/03/29 02:11:46;;;;;;;75.70;21.12;;;;;;;7.89;58.50;101561.08;2312504;77;31224;-72
2021/03/29 02:14:48;;;;;;;73.67;20.23;;;;;;;7.89;58.72;101554.41;2312426;77;33089;-74
2021/03/29 02:17:59;;;;;;;90.75;23.85;;;;;;;7.89;58.67;101559.74;2312581;77;29169;-67
2021/03/29 02:21:05;;;;;;;71.35;21.55;;;;;;;7.90;58.79;101553.50;2312694;77;27633;-72
2021/03/29 02:24:11;;;;;;;82.10;22.37;;;;;;;7.90;58.74;101558.83;2312489;77;28816;-74
2021/03/29 02:27:13;;;;;;;83.12;22.02;;;;;;;7.91;58.84;101549.92;2312543;77;32049;-73
2021/03/29 02:30:24;;;;;;;81.10;21.30;;;;;;;7.93;58.96;101552.11;2312386;77;33115;-72
2021/03/29 02:33:26;;;;;;;86.63;21.90;;;;;;;7.94;59.11;101561.88;2255718;78;29164;-74
2021/03/29 02:36:29;;;;;;;79.87;22.22;;;;;;;7.95;59.28;101552.08;2290657;77;27685;-70
2021/03/29 02:39:31;;;;;;;84.42;22.07;;;;;;;7.95;59.31;101555.61;2311478;77;29256;-70
2021/03/29 02:42:34;;;;;;;85.65;22.37;;;;;;;7.95;59.26;101550.27;2312156;77;31130;-71
2021/03/29 02:45:56;;;;;;;100.70;23.90;;;;;;;7.97;59.29;101550.26;2312178;77;34007;-76
2021/03/29 02:49:02;;;;;;;107.63;25.40;;;;;;;8.02;59.36;101547.92;2312732;77;29252;-74
2021/03/29 02:52:05;;;;;;;98.95;23.73;;;;;;;8.08;59.39;101546.06;2312633;76;27572;-68
2021/03/29 02:55:09;;;;;;;91.15;23.62;;;;;;;8.12;59.27;101538.39;2294330;77;28867;-68
2021/03/29 02:58:14;;;;;;;66.62;20.25;;;;;;;8.16;59.25;101539.66;2283191;77;31123;-68
2021/03/29 03:01:17;;;;;;;64.32;19.40;;;;;;;8.19;59.20;101546.72;2285758;77;33548;-68
2021/03/29 03:04:19;;;;;;;50.95;17.77;;;;;;;8.21;59.13;101541.77;2286439;77;29409;-69
2021/03/29 03:07:21;;;;;;;58.42;17.98;;;;;;;8.24;59.05;101547.96;2290425;77;27722;-72
2021/03/29 03:10:25;;;;;;;59.05;19.02;;;;;;;8.26;59.08;101548.81;2299279;77;29790;-74
2021/03/29 03:13:28;;;;;;;50.30;16.93;;;;;;;8.27;59.13;101554.14;2292659;77;32053;-69
2021/03/29 03:16:32;;;;;;;51.83;16.75;;;;;;;8.28;59.15;101544.33;2292596;77;34066;-67
2021/03/29 03:19:35;;;;;;;47.10;15.55;;;;;;;8.31;59.20;101551.81;2292793;77;29163;-75
2021/03/29 03:22:52;;;;;;;55.48;16.05;;;;;;;8.30;59.22;101549.19;2289378;77;27748;-73
2021/03/29 03:25:56;;;;;;;45.00;14.65;;;;;;;8.31;59.16;101548.27;2247096;78;28817;-73
2021/03/29 03:29:00;;;;;;;36.63;13.98;;;;;;;8.30;59.20;101553.19;2251064;79;32432;-77
2021/03/29 03:32:05;;;;;;;33.97;13.43;;;;;;;8.30;59.17;101548.72;2251739;78;33136;-77
2021/03/29 03:35:17;;;;;;;34.05;12.30;;;;;;;8.29;59.21;101552.29;2251669;78;29153;-74
2021/03/29 03:38:34;;;;;;;32.80;11.33;;;;;;;8.29;59.16;101552.77;2252000;79;27652;-75
2021/03/29 03:41:42;;;;;;;29.63;11.80;;;;;;;8.29;59.16;101550.09;2252101;79;28820;-83
2021/03/29 03:44:45;;;;;;;30.08;10.68;;;;;;;8.30;59.20;101547.84;2251393;79;31139;-73
2021/03/29 03:47:47;;;;;;;24.32;9.83;;;;;;;8.28;59.40;101544.33;2254683;78;33136;-70
2021/03/29 03:50:49;;;;;;;24.55;9.08;;;;;;;8.28;59.35;101539.85;2265242;78;29146;-69
2021/03/29 03:53:52;;;;;;;25.97;9.23;;;;;;;8.29;59.31;101535.41;2264999;78;27687;-68
2021/03/29 03:56:54;;;;;;;21.50;9.05;;;;;;;8.29;59.34;101546.95;2265705;78;29264;-73
2021/03/29 03:59:57;;;;;;;24.55;8.73;;;;;;;8.30;59.47;101543.84;2258093;77;31139;-73
2021/03/29 04:02:59;;;;;;;23.75;9.53;;;;;;;8.28;59.48;101542.99;2251153;79;33392;-72
2021/03/29 04:06:02;;;;;;;23.32;8.40;;;;;;;8.28;59.48;101555.87;2251198;79;29158;-71
2021/03/29 04:09:04;;;;;;;20.65;8.10;;;;;;;8.28;59.47;101555.01;2251273;79;27702;-67
2021/03/29 04:12:10;;;;;;;16.90;7.42;;;;;;;8.29;59.40;101557.63;2251071;79;28806;-73
2021/03/29 04:15:13;;;;;;;18.82;7.28;;;;;;;8.29;59.52;101555.43;2251196;79;31093;-67
2021/03/29 04:18:15;;;;;;;18.65;7.92;;;;;;;8.31;59.46;101561.63;2251804;77;33036;-66
2021/03/29 04:21:18;;;;;;;18.70;7.83;;;;;;;8.29;59.47;101554.97;2299609;77;29100;-68
2021/03/29 04:24:20;;;;;;;20.02;7.20;;;;;;;8.30;59.50;101560.73;2275408;77;27787;-66
2021/03/29 04:27:47;;;;;;;14.13;7.30;;;;;;;8.30;59.54;101559.87;2251288;77;29839;-69
2021/03/29 04:30:59;;;;;;;10.70;5.97;;;;;;;8.30;59.76;101566.07;2270329;77;27746;-67
2021/03/29 04:34:10;;;;;;;18.30;6.97;;;;;;;8.31;59.78;101557.62;2282010;77;29017;-65
2021/03/29 04:37:12;;;;;;;17.35;6.70;;;;;;;8.32;59.74;101559.38;2285380;77;29147;-68
2021/03/29 04:40:14;;;;;;;18.80;6.90;;;;;;;8.32;59.90;101557.58;2273599;77;27706;-71
2021/03/29 04:43:18;;;;;;;17.45;6.53;;;;;;;8.35;59.92;101559.33;2261252;77;28824;-69
2021/03/29 04:46:20;;;;;;;24.05;7.12;;;;;;;8.40;59.99;101560.56;2251146;79;31559;-73
2021/03/29 04:49:22;;;;;;;12.20;5.35;;;;;;;8.46;59.96;101556.41;2251131;79;33162;-71
2021/03/29 04:52:24;;;;;;;15.03;6.20;;;;;;;8.50;59.95;101560.38;2251159;79;29165;-73
2021/03/29 04:55:26;;;;;;;14.98;6.83;;;;;;;8.56;59.81;101559.37;2244733;77;27713;-75
2021/03/29 04:58:28;;;;;;;20.17;6.33;;;;;;;8.61;59.76;101556.13;2246138;77;28869;-72
2021/03/29 05:01:30;;;;;;;17.00;6.25;;;;;;;8.68;59.69;101557.34;2287311;77;31055;-70
2021/03/29 05:04:34;;;;;;;21.52;6.53;;;;;;;8.73;59.68;101566.15;2277008;78;34039;-67
2021/03/29 05:07:36;;;;;;;16.65;6.15;;;;;;;8.79;59.70;101568.67;2276970;78;29612;-67
2021/03/29 05:10:40;;;;;;;16.77;6.80;;;;;;;8.85;59.77;101575.23;2277317;78;28121;-67
2021/03/29 05:13:42;;;;;;;17.55;7.17;;;;;;;8.91;59.87;101574.20;2276419;78;28756;-69
2021/03/29 05:16:44;;;;;;;17.92;7.33;;;;;;;8.97;59.81;101578.09;2277226;78;31741;-70
2021/03/29 05:19:47;;;;;;;15.93;7.28;;;;;;;9.03;59.80;101582.41;2277341;78;33567;-74
2021/03/29 05:22:49;;;;;;;14.07;6.85;;;;;;;9.08;60.06;101584.06;2276304;77;29085;-71
2021/03/29 05:25:51;;;;;;;18.73;7.35;;;;;;;9.14;60.10;101580.84;2255652;78;27624;-69
2021/03/29 05:28:53;;;;;;;22.50;7.08;;;;;;;9.20;60.19;101584.69;2303588;77;28814;-73
2021/03/29 05:31:56;;;;;;;18.80;7.17;;;;;;;9.26;60.25;101588.56;2311717;77;31314;-69
2021/03/29 05:35:02;;;;;;;21.85;8.03;;;;;;;9.35;60.33;101584.80;2302564;77;33170;-74
2021/03/29 05:38:04;;;;;;;20.00;7.30;;;;;;;9.45;60.10;101584.98;2262441;77;29843;-73
2021/03/29 05:41:06;;;;;;;18.70;6.87;;;;;;;9.55;60.01;101587.88;2258789;77;27692;-75
2021/03/29 05:44:10;;;;;;;21.33;7.85;;;;;;;9.67;59.89;101589.37;2255352;78;28878;-75
2021/03/29 05:47:13;;;;;;;16.25;6.90;;;;;;;9.79;59.73;101587.30;2271974;77;32165;-75
2021/03/29 05:50:17;;;;;;;20.43;6.70;;;;;;;9.92;59.58;101594.09;2312469;77;34387;-75
2021/03/29 05:53:19;;;;;;;19.27;7.58;;;;;;;10.04;59.36;101599.11;2310985;77;29212;-73
2021/03/29 05:56:21;;;;;;;27.95;9.23;;;;;;;10.21;59.31;101600.93;2314015;76;27595;-73
2021/03/29 05:59:33;;;;;;;16.82;7.12;;;;;;;10.41;59.20;101603.98;2294995;76;29837;-74
2021/03/29 06:02:32;;;;;;;20.82;7.40;;;;;;;10.64;58.93;101601.09;2250129;79;31126;-74
2021/03/29 06:05:34;;;;;;;27.07;9.43;;;;;;;10.84;58.54;101596.47;2251275;78;33142;-72
2021/03/29 06:08:42;;;;;;;20.25;7.47;;;;;;;11.04;58.05;101593.66;2251457;79;29163;-70
2021/03/29 06:11:48;;;;;;;21.17;7.85;;;;;;;11.18;58.15;101595.44;2251505;78;27673;-74
2021/03/29 06:15:01;;;;;;;21.45;9.08;;;;;;;11.30;57.75;101602.71;2251352;79;29254;-70
2021/03/29 06:18:12;;;;;;;21.40;8.00;;;;;;;11.38;57.72;101600.64;2250885;79;32088;-69
2021/03/29 06:21:15;;;;;;;19.87;8.05;;;;;;;11.46;57.47;101601.73;2246538;79;34000;-71
2021/03/29 06:24:17;;;;;;;19.77;7.97;;;;;;;11.54;57.18;101601.05;2260084;77;29165;-75
2021/03/29 06:27:26;;;;;;;21.90;7.95;;;;;;;11.62;57.09;101602.99;2297547;77;27814;-73
2021/03/29 06:30:36;;;;;;;18.35;7.87;;;;;;;11.74;56.97;101598.16;2292732;77;29678;-71
2021/03/29 06:33:49;;;;;;;31.62;8.20;;;;;;;11.89;56.41;101597.64;2292374;77;31130;-71
2021/03/29 06:36:51;;;;;;;24.30;9.03;;;;;;;12.05;56.44;101594.46;2292530;77;33105;-71
2021/03/29 06:39:54;;;;;;;20.57;8.33;;;;;;;12.21;56.34;101597.02;2292743;77;29163;-71
2021/03/29 06:42:56;;;;;;;29.25;9.80;;;;;;;12.38;56.09;101596.39;2285221;77;27618;-73
2021/03/29 06:46:08;;;;;;;23.35;9.68;;;;;;;12.51;55.73;101592.80;2251262;79;28813;-69
2021/03/29 06:49:10;;;;;;;21.95;8.75;;;;;;;12.64;55.42;101595.02;2251140;79;31651;-70
2021/03/29 06:52:33;;;;;;;27.17;8.70;;;;;;;12.78;55.31;101606.13;2251322;79;34078;-72
2021/03/29 06:55:36;;;;;;;21.23;8.33;;;;;;;12.92;54.91;101602.92;2254557;78;28474;-72
2021/03/29 06:58:38;;;;;;;21.20;7.67;;;;;;;13.09;54.70;101597.36;2265406;77;28290;-71
2021/03/29 07:01:54;;;;;;;16.32;8.58;;;;;;;13.26;54.61;101596.67;2304066;77;30131;-70
2021/03/29 07:04:58;;;;;;;17.73;6.97;;;;;;;13.42;54.05;101599.66;2276315;77;31124;-74
2021/03/29 07:08:04;;;;;;;20.62;7.30;;;;;;;13.59;53.83;101594.47;2262050;78;33109;-75
2021/03/29 07:11:08;;;;;;;20.43;8.30;;;;;;;13.78;53.55;101593.70;2269271;77;29163;-73
2021/03/29 07:14:12;;;;;;;18.27;6.25;;;;;;;14.01;53.29;101599.45;2291517;77;27685;-70
2021/03/29 07:17:26;;;;;;;25.88;10.80;;;;;;;14.29;53.07;101600.92;2302897;76;27991;-71
2021/03/29 07:20:44;;;;;;;26.10;8.08;;;;;;;14.58;52.79;101597.38;2277596;77;31588;-71
2021/03/29 07:23:52;;;;;;;17.50;7.10;;;;;;;14.88;52.07;101601.02;2157438;80;28390;-72
2021/03/29 07:26:59;;;;;;;16.05;6.17;;;;;;;15.13;51.76;101606.58;2209905;80;35292;-72
2021/03/29 07:30:03;;;;;;;19.80;7.17;;;;;;;15.37;51.56;101603.66;2209324;80;27696;-77
2021/03/29 07:33:18;;;;;;;19.52;8.10;;;;;;;15.57;51.07;101599.47;2213754;80;29716;-73
2021/03/29 07:36:50;;;;;;;15.38;5.70;;;;;;;15.77;50.69;101596.25;2248295;78;32445;-68
2021/03/29 07:39:53;;;;;;;15.93;7.65;;;;;;;15.89;49.90;101599.70;2214596;80;33108;-70
2021/03/29 07:43:06;;;;;;;20.82;8.55;;;;;;;16.03;49.91;101598.14;2225658;78;29039;-70
2021/03/29 07:46:08;;;;;;;18.57;7.53;;;;;;;16.13;49.31;101603.45;2213479;79;27647;-70
2021/03/29 07:49:44;;;;;;;22.70;8.00;;;;;;;16.25;48.47;101604.65;2178973;80;28825;-71
2021/03/29 07:52:50;;;;;;;15.40;6.50;;;;;;;16.23;48.61;101606.55;2213530;80;31194;-74
2021/03/29 07:55:56;;;;;;;28.67;11.38;;;;;;;16.26;48.22;101606.40;2196418;80;33097;-68
2021/03/29 07:58:59;;;;;;;34.65;14.85;;;;;;;16.39;48.10;101612.90;2284132;77;30483;-68
2021/03/29 08:02:05;;;;;;;32.67;14.68;;;;;;;16.56;48.18;101613.83;2255797;77;27554;-71
2021/03/29 08:05:14;;;;;;;25.40;10.35;;;;;;;16.74;48.03;101611.08;2251581;77;28812;-69
2021/03/29 08:08:33;;;;;;;16.23;6.05;;;;;;;16.92;47.23;101620.01;2255893;77;32036;-69
2021/03/29 08:11:56;;;;;;;19.45;5.95;;;;;;;17.05;47.16;101614.83;2210963;80;33029;-69
2021/03/29 08:14:59;;;;;;;15.32;4.72;;;;;;;17.23;46.74;101622.38;2186225;80;29373;-69
2021/03/29 08:18:01;;;;;;;17.02;5.75;;;;;;;17.13;45.64;101594.48;2292542;77;27655;-69
2021/03/29 08:21:03;;;;;;;12.65;5.10;;;;;;;17.13;45.64;101594.48;2292612;77;28982;-68
2021/03/29 08:24:05;;;;;;;14.75;5.35;;;;;;;17.24;44.90;101622.31;2278885;77;31205;-70
2021/03/29 08:27:19;;;;;;;13.88;5.25;;;;;;;17.19;45.18;101624.89;2291777;77;33122;-69
2021/03/29 08:30:21;;;;;;;12.85;4.78;;;;;;;17.19;45.18;101624.89;2290744;77;30244;-70
2021/03/29 08:33:24;;;;;;;12.93;5.67;;;;;;;17.07;44.88;101630.52;2290644;77;27851;-70
2021/03/29 08:36:26;;;;;;;11.50;5.00;;;;;;;16.73;44.71;101637.25;2265870;77;28878;-69
2021/03/29 08:39:35;;;;;;;13.20;4.80;;;;;;;16.48;44.78;101626.87;2259471;77;31125;-70
2021/03/29 08:42:38;;;;;;;17.25;4.72;;;;;;;16.48;44.78;101626.87;2288734;76;33095;-71
2021/03/29 08:45:42;;;;;;;19.92;8.38;;;;;;;16.51;44.44;101652.41;2251271;79;29201;-74
2021/03/29 08:48:47;;;;;;;15.20;6.67;;;;;;;16.32;44.72;101632.23;2262382;77;27751;-70
2021/03/29 08:51:50;;;;;;;14.25;5.70;;;;;;;16.42;44.81;101648.86;2283707;77;28813;-70
2021/03/29 08:54:58;;;;;;;13.93;4.55;;;;;;;16.45;45.17;101651.41;2195409;81;32059;-71
2021/03/29 08:58:02;;;;;;;13.00;5.30;;;;;;;16.55;44.27;101653.52;2195334;81;34057;-68
2021/03/29 09:01:05;;;;;;;16.27;5.50;;;;;;;16.63;44.81;101646.84;2202542;80;30398;-72
2021/03/29 09:04:09;;;;;;;13.45;5.20;;;;;;;16.76;44.51;101651.98;2202937;80;28350;-72
2021/03/29 09:07:13;;;;;;;11.53;4.75;;;;;;;16.86;44.38;101648.30;2203339;80;28809;-71
2021/03/29 09:10:23;;;;;;;10.75;4.17;;;;;;;16.93;44.02;101647.47;2281778;77;32235;-73
2021/03/29 09:13:26;;;;;;;13.30;5.42;;;;;;;16.94;44.32;101654.64;2286036;77;33976;-70
2021/03/29 09:16:28;;;;;;;17.23;5.60;;;;;;;17.00;44.49;101652.99;2272162;77;30076;-74
2021/03/29 09:19:34;;;;;;;14.07;4.60;;;;;;;17.27;44.60;101650.59;2192806;80;27728;-69
2021/03/29 09:22:37;;;;;;;10.60;5.10;;;;;;;17.27;44.60;101650.59;2206843;80;28811;-70
2021/03/29 09:25:46;;;;;;;11.33;4.70;;;;;;;17.34;44.43;101652.93;2194515;79;32726;-68
2021/03/29 09:28:50;;;;;;;13.35;4.95;;;;;;;17.34;44.43;101652.93;2203792;79;34021;-71
2021/03/29 09:31:52;;;;;;;12.15;4.45;;;;;;;17.50;44.17;101667.84;2203245;80;29208;-71
2021/03/29 09:34:55;;;;;;;9.98;4.65;;;;;;;17.54;44.22;101669.43;2203169;80;27825;-69
2021/03/29 09:37:58;;;;;;;16.80;4.70;;;;;;;17.57;44.44;101666.05;2284185;76;29784;-69
2021/03/29 09:41:00;;;;;;;10.72;3.75;;;;;;;17.67;44.36;101674.99;2296894;76;31144;-71
2021/03/29 09:44:08;;;;;;;11.03;4.45;;;;;;;17.71;44.04;101674.72;2270205;77;33966;-69
2021/03/29 09:47:10;;;;;;;8.73;3.80;;;;;;;17.76;44.33;101677.19;2251245;79;29158;-70
2021/03/29 09:50:12;;;;;;;12.43;3.95;;;;;;;17.79;43.53;101681.05;2251287;79;27691;-75
2021/03/29 09:53:24;;;;;;;11.35;3.50;;;;;;;17.79;43.93;101678.34;2251392;79;28862;-68
2021/03/29 09:59:45;;;;;;;11.00;4.70;;;;;;;17.80;44.84;101677.37;2252583;77;32756;-74
2021/03/29 10:02:47;;;;;;;13.30;6.30;;;;;;;17.75;44.73;101678.16;2217771;80;27689;-70
2021/03/29 10:05:51;;;;;;;12.93;5.37;;;;;;;17.80;44.90;101671.95;2212804;80;28813;-71
2021/03/29 10:09:01;;;;;;;12.53;5.47;;;;;;;17.81;44.58;101676.42;2179020;81;32081;-76
2021/03/29 10:12:05;;;;;;;13.53;4.70;;;;;;;17.84;45.11;101676.74;2150954;81;33167;-75
2021/03/29 10:15:13;;;;;;;11.73;4.45;;;;;;;17.77;44.42;101676.23;2187797;80;28513;-73
2021/03/29 10:18:19;;;;;;;13.30;4.30;;;;;;;17.69;44.46;101676.67;2186722;80;27729;-69
2021/03/29 10:21:21;;;;;;;17.32;5.65;;;;;;;17.64;44.69;101673.81;2178870;81;28816;-71
2021/03/29 10:24:23;;;;;;;16.12;7.92;;;;;;;17.48;45.13;101657.58;2182037;80;31121;-69
2021/03/29 10:27:27;;;;;;;13.13;4.62;;;;;;;17.58;45.49;101658.78;2211343;80;33187;-68
2021/03/29 10:30:33;;;;;;;13.72;4.80;;;;;;;17.70;45.36;101678.89;2214823;80;28861;-68
2021/03/29 10:33:34;;;;;;;12.18;4.95;;;;;;;17.64;45.45;101673.81;2217668;80;27595;-70
2021/03/29 10:36:37;;;;;;;11.78;4.80;;;;;;;17.52;45.55;101675.41;2217630;80;29765;-72
2021/03/29 10:39:42;;;;;;;19.62;5.08;;;;;;;17.39;45.69;101673.87;2198410;78;32090;-68
2021/03/29 10:42:48;;;;;;;10.75;4.70;;;;;;;17.23;45.99;101671.13;2188342;78;33154;-67
2021/03/29 10:45:54;;;;;;;13.70;5.33;;;;;;;17.13;46.10;101672.12;2186894;78;28862;-69
2021/03/29 10:48:57;;;;;;;12.33;4.80;;;;;;;17.08;46.67;101668.32;2191103;80;27651;-69
2021/03/29 10:52:01;;;;;;;11.55;4.97;;;;;;;17.13;46.78;101668.95;2179099;80;29796;-69
2021/03/29 10:55:07;;;;;;;12.68;5.72;;;;;;;17.12;46.57;101665.84;2163973;80;31205;-68
2021/03/29 10:58:12;;;;;;;13.03;6.60;;;;;;;17.18;46.81;101665.13;2195033;80;33034;-71
2021/03/29 11:01:18;;;;;;;14.33;5.55;;;;;;;17.20;46.96;101657.30;2201138;78;27749;-75
2021/03/29 11:04:26;;;;;;;21.42;10.10;;;;;;;17.28;47.13;101655.05;2191110;78;27672;-68
2021/03/29 11:07:28;;;;;;;14.45;6.30;;;;;;;17.41;46.97;101652.49;2190105;80;28802;-67
2021/03/29 11:10:40;;;;;;;17.57;6.25;;;;;;;17.41;46.97;101652.49;2195914;80;31185;-69
2021/03/29 11:13:44;;;;;;;16.45;5.35;;;;;;;17.34;47.06;101640.28;2090291;83;33103;-70
2021/03/29 11:16:52;;;;;;;;;;;;;;;17.34;47.06;101640.28;2147526;80;29833;-67
2021/03/29 11:19:54;;;;;;;;;;;;;;;17.42;47.12;101665.58;2166442;81;27708;-68
2021/03/29 11:22:57;;;;;;;12.35;5.78;;;;;;;17.39;47.09;101661.19;2120475;83;29078;-70
2021/03/29 11:26:00;;;;;;;16.32;5.83;;;;;;;17.37;47.23;101661.78;2117397;81;31240;-68
2021/03/29 11:29:05;;;;;;;14.60;5.45;;;;;;;17.53;46.85;101658.20;2144654;81;33051;-71
2021/03/29 11:32:10;;;;;;;12.45;5.35;;;;;;;17.71;46.79;101663.02;2151605;81;28961;-67
2021/03/29 11:35:15;;;;;;;11.45;4.92;;;;;;;17.71;46.79;101663.02;2138857;81;27628;-69
2021/03/29 11:38:18;;;;;;;15.30;6.33;;;;;;;17.82;47.11;101659.20;2159201;80;28787;-69
2021/03/29 11:41:24;;;;;;;12.25;5.75;;;;;;;17.97;47.07;101650.66;2151367;81;31151;-72
2021/03/29 11:44:28;;;;;;;11.90;5.10;;;;;;;18.13;46.98;101648.41;2143576;80;33107;-70
2021/03/29 11:47:30;;;;;;;14.90;4.75;;;;;;;18.30;46.73;101647.37;2117208;83;29812;-71
2021/03/29 11:50:36;;;;;;;14.05;6.15;;;;;;;18.45;46.52;101642.87;2126196;83;27707;-70
2021/03/29 11:53:40;;;;;;;18.48;6.05;;;;;;;18.56;45.76;101635.42;2113344;83;29693;-72
2021/03/29 11:56:44;;;;;;;22.10;7.22;;;;;;;18.54;45.75;101638.21;2132775;81;31074;-69
2021/03/29 12:03:11;;;;;;;9.53;4.90;;;;;;;18.75;46.47;101629.23;2234932;77;27783;-69
2021/03/29 12:06:18;;;;;;;10.18;4.50;;;;;;;18.79;45.72;101634.84;2205195;78;28210;-75
2021/03/29 12:12:42;;;;;;;11.70;5.33;;;;;;;18.81;45.40;101626.11;2211357;79;31145;-69
2021/03/29 12:15:50;;;;;;;13.40;7.60;;;;;;;18.57;45.31;101617.67;2219020;79;33229;-69
2021/03/29 12:18:58;;;;;;;15.03;5.40;;;;;;;18.52;46.31;101612.54;2212825;79;28610;-70
2021/03/29 12:22:14;;;;;;;14.40;6.70;;;;;;;18.58;46.24;101599.56;2211696;79;27831;-72
2021/03/29 12:25:21;;;;;;;8.68;5.08;;;;;;;18.65;46.33;101603.16;2194877;80;28854;-73
2021/03/29 12:28:27;;;;;;;14.25;6.55;;;;;;;18.66;46.22;101599.47;2200110;80;31187;-71
2021/03/29 12:31:34;;;;;;;14.87;6.25;;;;;;;18.71;46.14;101592.38;2204759;80;33101;-70
2021/03/29 12:34:54;;;;;;;15.15;5.50;;;;;;;18.76;46.08;101585.30;2177919;80;29804;-70
2021/03/29 12:37:59;;;;;;;14.98;6.25;;;;;;;18.83;46.11;101582.09;2155551;80;27731;-72
2021/03/29 12:41:05;;;;;;;9.35;4.35;;;;;;;18.85;45.82;101581.12;2195619;80;28799;-69
2021/03/29 12:44:14;;;;;;;12.37;5.17;;;;;;;18.80;45.57;101566.49;2204953;80;31140;-70
2021/03/29 12:47:25;;;;;;;11.80;5.30;;;;;;;18.84;45.49;101562.63;2190486;80;33166;-70
2021/03/29 12:50:29;;;;;;;12.20;5.17;;;;;;;18.82;45.59;101558.63;2210868;80;29786;-70
2021/03/29 12:53:33;;;;;;;12.03;6.92;;;;;;;18.85;45.35;101560.30;2199888;80;27761;-71
2021/03/29 12:56:38;;;;;;;18.67;10.10;;;;;;;18.79;45.46;101553.39;2202206;80;28806;-72
2021/03/29 12:59:42;;;;;;;11.22;5.75;;;;;;;18.67;45.53;101525.21;2025005;85;31153;-69
2021/03/29 13:02:47;;;;;;;12.45;5.60;;;;;;;18.79;45.28;101550.67;2021984;86;33608;-71
2021/03/29 13:09:40;;;;;;;13.70;5.85;;;;;;;18.80;44.89;101542.91;2232762;77;27361;-71
2021/03/29 13:12:25;;;;;;;16.77;6.00;;;;;;;18.74;44.89;101538.37;2184211;78;27743;-69
2021/03/29 13:15:29;;;;;;;15.20;5.53;;;;;;;18.69;44.69;101530.53;2204630;78;28800;-70
2021/03/29 13:18:31;;;;;;;24.15;10.13;;;;;;;18.59;44.43;101527.53;2192222;78;31134;-69
2021/03/29 13:21:34;;;;;;;18.55;7.80;;;;;;;18.39;44.92;101516.59;2193785;80;33123;-72
2021/03/29 13:24:37;;;;;;;11.57;6.40;;;;;;;18.31;44.88;101514.38;2188251;78;28494;-72
2021/03/29 13:27:41;;;;;;;10.65;6.42;;;;;;;18.20;44.76;101517.75;2163380;80;27782;-69
2021/03/29 13:30:44;;;;;;;10.08;6.25;;;;;;;18.12;45.19;101515.98;2200226;78;28010;-74
2021/03/29 13:33:48;;;;;;;16.75;6.65;;;;;;;18.11;44.93;101519.69;2191842;80;31078;-71
2021/03/29 13:36:50;;;;;;;13.25;6.80;;;;;;;18.08;45.08;101522.59;2188912;80;33186;-72
2021/03/29 13:39:55;;;;;;;13.88;5.83;;;;;;;18.12;45.25;101528.19;2186377;80;28970;-70
2021/03/29 13:42:58;;;;;;;;;;;;;;;18.22;45.31;101531.20;2186346;80;27887;-70
2021/03/29 13:46:02;;;;;;;13.20;6.70;;;;;;;18.29;45.25;101529.87;2185349;78;28876;-72
2021/03/29 13:49:07;;;;;;;14.70;6.97;;;;;;;18.33;44.81;101531.42;2203835;80;32450;-72
2021/03/29 13:52:10;;;;;;;14.73;7.87;;;;;;;18.35;45.03;101526.78;2200051;80;34014;-71
2021/03/29 13:55:14;;;;;;;12.58;7.25;;;;;;;18.37;44.84;101522.10;2201736;80;28907;-70
2021/03/29 13:58:17;;;;;;;20.77;7.27;;;;;;;18.35;44.43;101516.39;2194257;80;27775;-71
2021/03/29 14:01:32;;;;;;;13.08;6.90;;;;;;;18.31;44.32;101522.51;2174951;78;28819;-75
2021/03/29 14:04:35;;;;;;;17.23;7.72;;;;;;;18.35;44.68;101518.64;2194638;80;31194;-72
2021/03/29 14:07:42;;;;;;;16.93;6.70;;;;;;;18.40;44.08;101521.52;2166459;80;33102;-73
2021/03/29 14:10:46;;;;;;;14.43;6.95;;;;;;;18.37;43.76;101505.83;2190864;78;28911;-68
2021/03/29 14:13:51;;;;;;;14.25;6.53;;;;;;;18.37;43.80;101504.97;2193526;78;27737;-67
2021/03/29 14:16:55;;;;;;;15.35;6.90;;;;;;;18.33;43.88;101496.62;2194718;78;28264;-71
2021/03/29 14:19:57;;;;;;;13.55;6.20;;;;;;;18.42;43.74;101497.41;2183376;80;31145;-65
2021/03/29 14:23:00;;;;;;;12.35;7.17;;;;;;;18.44;43.76;101493.23;2183608;78;33637;-69
2021/03/29 14:26:04;;;;;;;16.07;8.43;;;;;;;18.49;43.75;101490.61;2154723;80;29089;-72
2021/03/29 14:29:08;;;;;;;13.35;7.05;;;;;;;18.47;43.60;101486.26;2200324;80;27741;-68